Time;durP1;ratioP1;P1;durP2;ratioP2;P2;SDS_P1;SDS_P2;PMS_P1;PMS_P2;Temp;Humidity;BMP_temperature;BMP_pressure;BME280_temperature;BME280_humidity;BME280_pressure;Samples;Min_cycle;Max_cycle;Signal;HPM_P1;HPM_P2
2022/02/17 00:00:06;;;;;;;1.63;0.63;;;;;;;;;;5037103;28;20283;-84
2022/02/17 00:02:33;;;;;;;0.60;0.60;;;;;;;;;;5005814;28;20173;-84
2022/02/17 00:05:00;;;;;;;0.65;0.60;;;;;;;;;;5040417;28;20203;-88
2022/02/17 00:07:26;;;;;;;0.60;0.50;;;;;;;;;;5027540;28;20282;-85
2022/02/17 00:09:52;;;;;;;0.70;0.55;;;;;;;;;;5038723;28;20203;-86
2022/02/17 00:12:18;;;;;;;1.20;0.53;;;;;;;;;;5039463;28;20237;-83
2022/02/17 00:14:43;;;;;;;0.93;0.55;;;;;;;;;;5010786;28;20421;-86
2022/02/17 00:17:09;;;;;;;1.17;0.77;;;;;;;;;;5043651;28;20204;-85
2022/02/17 00:19:35;;;;;;;0.63;0.60;;;;;;;;;;5022479;28;20442;-88
2022/02/17 00:22:01;;;;;;;1.00;0.70;;;;;;;;;;5027895;28;20434;-85
2022/02/17 00:24:27;;;;;;;0.95;0.90;;;;;;;;;;5026878;28;20466;-90
2022/02/17 00:26:53;;;;;;;1.10;1.00;;;;;;;;;;5012975;28;20198;-91
2022/02/17 00:29:19;;;;;;;1.00;0.68;;;;;;;;;;5007150;28;20465;-85
2022/02/17 00:31:45;;;;;;;0.70;0.70;;;;;;;;;;5023447;28;20182;-87
2022/02/17 00:34:13;;;;;;;0.57;0.57;;;;;;;;;;5034215;28;20458;-86
2022/02/17 00:36:39;;;;;;;0.88;0.60;;;;;;;;;;5027989;28;20207;-87
2022/02/17 00:39:05;;;;;;;0.90;0.60;;;;;;;;;;5023323;28;20225;-89
2022/02/17 00:41:32;;;;;;;0.70;0.60;;;;;;;;;;5012661;28;20179;-87
2022/02/17 00:43:58;;;;;;;1.42;0.60;;;;;;;;;;5022832;28;20182;-85
2022/02/17 00:46:26;;;;;;;0.70;0.70;;;;;;;;;;5031960;28;20260;-87
2022/02/17 00:48:52;;;;;;;0.95;0.60;;;;;;;;;;5028362;28;20203;-89
2022/02/17 00:51:18;;;;;;;1.48;0.60;;;;;;;;;;5025231;28;20179;-87
2022/02/17 00:53:44;;;;;;;0.70;0.70;;;;;;;;;;5023651;28;20190;-88
2022/02/17 00:56:10;;;;;;;0.60;0.60;;;;;;;;;;5054479;28;20436;-85
2022/02/17 00:58:36;;;;;;;1.08;0.60;;;;;;;;;;5022449;28;20446;-89
2022/02/17 01:01:02;;;;;;;0.55;0.50;;;;;;;;;;5035188;28;20202;-87
2022/02/17 01:03:28;;;;;;;1.15;0.80;;;;;;;;;;5023076;28;20191;-93
2022/02/17 01:05:54;;;;;;;0.80;0.80;;;;;;;;;;5038654;28;20222;-88
2022/02/17 01:08:21;;;;;;;2.25;0.52;;;;;;;;;;5010702;28;20209;-89
2022/02/17 01:10:46;;;;;;;1.95;0.60;;;;;;;;;;5028686;28;20258;-86
2022/02/17 01:13:12;;;;;;;1.60;0.70;;;;;;;;;;5027431;28;20268;-88
2022/02/17 01:15:39;;;;;;;1.43;0.63;;;;;;;;;;5022553;28;20472;-90
2022/02/17 01:18:05;;;;;;;1.20;0.70;;;;;;;;;;5036356;28;20444;-87
2022/02/17 01:20:31;;;;;;;1.25;1.15;;;;;;;;;;5056430;28;20209;-89
2022/02/17 01:22:57;;;;;;;0.60;0.50;;;;;;;;;;5022480;28;20187;-89
2022/02/17 01:25:23;;;;;;;1.30;0.70;;;;;;;;;;5027541;28;20199;-87
2022/02/17 01:27:51;;;;;;;2.22;0.70;;;;;;;;;;5027476;28;20484;-90
2022/02/17 01:30:18;;;;;;;2.75;0.73;;;;;;;;;;5029182;28;20246;-90
2022/02/17 01:32:44;;;;;;;1.55;0.90;;;;;;;;;;5036434;28;20175;-86
2022/02/17 01:35:10;;;;;;;3.08;1.00;;;;;;;;;;5011430;28;20202;-85
2022/02/17 01:37:36;;;;;;;1.52;0.80;;;;;;;;;;5014849;28;20192;-86
2022/02/17 01:40:03;;;;;;;3.17;0.80;;;;;;;;;;5013769;28;20571;-88
2022/02/17 01:42:29;;;;;;;3.55;1.00;;;;;;;;;;5018790;28;20188;-87
2022/02/17 01:44:55;;;;;;;3.70;1.05;;;;;;;;;;5022377;28;20231;-89
2022/02/17 01:47:21;;;;;;;0.80;0.73;;;;;;;;;;5023447;28;20589;-83
2022/02/17 01:49:48;;;;;;;3.75;1.05;;;;;;;;;;5022664;28;20242;-84
2022/02/17 01:52:14;;;;;;;2.42;1.10;;;;;;;;;;5027393;28;20186;-86
2022/02/17 01:54:42;;;;;;;9.30;2.00;;;;;;;;;;5032839;28;20192;-87
2022/02/17 01:57:09;;;;;;;3.78;1.33;;;;;;;;;;5022958;28;20309;-89
2022/02/17 01:59:36;;;;;;;7.13;1.80;;;;;;;;;;5007302;28;20186;-85
2022/02/17 02:02:02;;;;;;;5.95;2.40;;;;;;;;;;5022460;28;20176;-84
2022/02/17 02:04:28;;;;;;;5.47;1.77;;;;;;;;;;5026717;28;20191;-90
2022/02/17 02:06:54;;;;;;;7.47;2.20;;;;;;;;;;5026961;28;20273;-87
2022/02/17 02:09:19;;;;;;;11.03;2.87;;;;;;;;;;5021656;28;20495;-86
2022/02/17 02:11:46;;;;;;;8.85;2.05;;;;;;;;;;5025432;28;20421;-87
2022/02/17 02:14:15;;;;;;;9.30;3.00;;;;;;;;;;5041703;28;20544;-89
2022/02/17 02:16:42;;;;;;;6.82;2.05;;;;;;;;;;5010886;28;20194;-85
2022/02/17 02:19:08;;;;;;;6.70;2.10;;;;;;;;;;5026732;28;20247;-84
2022/02/17 02:21:34;;;;;;;6.75;2.13;;;;;;;;;;5017091;28;20633;-86
2022/02/17 02:24:01;;;;;;;8.13;1.90;;;;;;;;;;5006668;28;20265;-83
2022/02/17 02:26:27;;;;;;;16.95;3.33;;;;;;;;;;5009267;28;20183;-84
2022/02/17 02:28:54;;;;;;;3.75;1.80;;;;;;;;;;5011135;28;20263;-89
2022/02/17 02:31:20;;;;;;;5.22;1.63;;;;;;;;;;5026546;28;20323;-86
2022/02/17 02:33:47;;;;;;;9.18;2.33;;;;;;;;;;5010963;28;20198;-84
2022/02/17 02:36:13;;;;;;;6.68;2.35;;;;;;;;;;5009042;28;20183;-84
2022/02/17 02:38:39;;;;;;;9.50;2.20;;;;;;;;;;5021435;28;20228;-84
2022/02/17 02:41:05;;;;;;;7.38;1.73;;;;;;;;;;5026404;28;20210;-85
2022/02/17 02:43:31;;;;;;;10.55;2.63;;;;;;;;;;5025667;28;20218;-85
2022/02/17 02:45:57;;;;;;;4.88;2.10;;;;;;;;;;5012928;28;20560;-84
2022/02/17 02:48:23;;;;;;;7.60;2.67;;;;;;;;;;5037970;28;20299;-86
2022/02/17 02:50:49;;;;;;;9.13;2.88;;;;;;;;;;5040222;28;20430;-86
2022/02/17 02:53:16;;;;;;;8.67;3.93;;;;;;;;;;5028713;28;20235;-86
2022/02/17 02:55:44;;;;;;;11.85;3.63;;;;;;;;;;5025248;28;20442;-88
2022/02/17 02:58:10;;;;;;;7.05;2.60;;;;;;;;;;5042454;28;20187;-82
2022/02/17 03:00:36;;;;;;;10.38;3.10;;;;;;;;;;5029140;28;20210;-86
2022/02/17 03:03:02;;;;;;;9.07;2.40;;;;;;;;;;5026235;28;20217;-88
2022/02/17 03:05:28;;;;;;;9.10;2.67;;;;;;;;;;5038107;28;20184;-85
2022/02/17 03:07:55;;;;;;;12.17;3.00;;;;;;;;;;5029566;28;20214;-87
2022/02/17 03:10:21;;;;;;;11.63;3.80;;;;;;;;;;5029181;28;20458;-83
2022/02/17 03:12:47;;;;;;;5.70;2.65;;;;;;;;;;5025886;28;20183;-87
2022/02/17 03:15:13;;;;;;;9.25;3.83;;;;;;;;;;5022441;28;20185;-85
2022/02/17 03:17:39;;;;;;;7.75;2.90;;;;;;;;;;5053513;28;20182;-86
2022/02/17 03:20:07;;;;;;;9.00;3.50;;;;;;;;;;5040234;28;20185;-82
2022/02/17 03:22:33;;;;;;;10.60;2.92;;;;;;;;;;5025735;28;20384;-88
2022/02/17 03:24:59;;;;;;;14.30;4.18;;;;;;;;;;5013562;28;20202;-87
2022/02/17 03:27:26;;;;;;;12.82;3.70;;;;;;;;;;5012840;28;20174;-85
2022/02/17 03:29:52;;;;;;;15.25;3.85;;;;;;;;;;5024582;28;20191;-85
2022/02/17 03:32:19;;;;;;;15.40;3.70;;;;;;;;;;5022776;28;20302;-84
2022/02/17 03:34:45;;;;;;;16.27;5.07;;;;;;;;;;5023756;28;20433;-86
2022/02/17 03:37:11;;;;;;;20.88;5.40;;;;;;;;;;5022924;28;20183;-87
2022/02/17 03:39:37;;;;;;;14.00;5.30;;;;;;;;;;5028003;28;20233;-87
2022/02/17 03:42:04;;;;;;;9.07;4.05;;;;;;;;;;5024550;28;20198;-83
2022/02/17 03:44:30;;;;;;;12.52;4.68;;;;;;;;;;5010342;28;20333;-86
2022/02/17 03:46:56;;;;;;;20.37;3.70;;;;;;;;;;5013425;28;20202;-84
2022/02/17 03:49:23;;;;;;;18.70;4.13;;;;;;;;;;5010054;28;20469;-83
2022/02/17 03:51:49;;;;;;;22.42;4.55;;;;;;;;;;5028553;28;20449;-85
2022/02/17 03:54:15;;;;;;;11.30;3.33;;;;;;;;;;5025264;28;20198;-85
2022/02/17 03:56:41;;;;;;;15.60;4.22;;;;;;;;;;5023696;28;20171;-87
2022/02/17 03:59:08;;;;;;;11.25;3.40;;;;;;;;;;5013372;28;20647;-86
2022/02/17 04:01:35;;;;;;;21.92;3.60;;;;;;;;;;5027514;28;20253;-84
2022/02/17 04:04:02;;;;;;;10.02;3.55;;;;;;;;;;5031403;28;20190;-85
2022/02/17 04:06:28;;;;;;;15.73;5.35;;;;;;;;;;5024326;28;20373;-84
2022/02/17 04:08:55;;;;;;;10.60;3.35;;;;;;;;;;5022371;28;20207;-84
2022/02/17 04:11:20;;;;;;;11.88;4.05;;;;;;;;;;5039866;28;20178;-82
2022/02/17 04:13:48;;;;;;;12.43;3.27;;;;;;;;;;5024902;28;20178;-86
2022/02/17 04:16:15;;;;;;;17.50;5.65;;;;;;;;;;5033492;28;20438;-86
2022/02/17 04:18:41;;;;;;;14.60;4.90;;;;;;;;;;5024169;28;20213;-87
2022/02/17 04:21:08;;;;;;;13.98;4.05;;;;;;;;;;5013350;28;20671;-88
2022/02/17 04:23:34;;;;;;;17.17;6.03;;;;;;;;;;5036885;28;20185;-83
2022/02/17 04:26:01;;;;;;;21.42;5.25;;;;;;;;;;5028042;28;20234;-86
2022/02/17 04:28:27;;;;;;;29.35;5.72;;;;;;;;;;5043389;28;20210;-85
2022/02/17 04:30:53;;;;;;;19.77;5.37;;;;;;;;;;5032976;28;20330;-86
2022/02/17 04:33:19;;;;;;;24.03;5.17;;;;;;;;;;5044845;28;20464;-85
2022/02/17 04:35:45;;;;;;;19.23;4.22;;;;;;;;;;5037557;28;20916;-84
2022/02/17 04:38:11;;;;;;;26.50;5.93;;;;;;;;;;5055948;28;20778;-85
2022/02/17 04:43:22;;;;;;;20.17;5.80;;;;;;;;;;5012979;28;20251;-82
2022/02/17 04:45:48;;;;;;;13.02;4.32;;;;;;;;;;5027017;28;20198;-86
2022/02/17 04:48:13;;;;;;;19.83;5.18;;;;;;;;;;5010021;28;20230;-87
2022/02/17 04:50:40;;;;;;;22.60;6.80;;;;;;;;;;5020716;28;20182;-84
2022/02/17 04:53:07;;;;;;;17.20;6.20;;;;;;;;;;5044121;28;20433;-84
2022/02/17 04:55:33;;;;;;;24.23;6.05;;;;;;;;;;5011903;28;20191;-84
2022/02/17 04:57:59;;;;;;;23.53;7.00;;;;;;;;;;5012972;28;20183;-85
2022/02/17 05:00:26;;;;;;;24.47;5.77;;;;;;;;;;5026792;28;20484;-87
2022/02/17 05:02:52;;;;;;;21.25;5.80;;;;;;;;;;5023062;28;20422;-87
2022/02/17 05:05:18;;;;;;;15.13;4.80;;;;;;;;;;5025947;28;20202;-86
2022/02/17 05:07:44;;;;;;;24.98;7.43;;;;;;;;;;5027142;28;20246;-86
2022/02/17 05:10:10;;;;;;;19.13;5.00;;;;;;;;;;5027518;28;20278;-87
2022/02/17 05:12:36;;;;;;;20.33;6.22;;;;;;;;;;5008317;28;20442;-85
2022/02/17 05:15:02;;;;;;;25.60;5.80;;;;;;;;;;5022514;28;20199;-84
2022/02/17 05:17:28;;;;;;;19.35;6.13;;;;;;;;;;5023708;28;20465;-88
2022/02/17 05:19:54;;;;;;;17.53;6.57;;;;;;;;;;5022807;28;20269;-83
2022/02/17 05:22:20;;;;;;;15.93;4.80;;;;;;;;;;5017543;28;20437;-84
2022/02/17 05:24:46;;;;;;;20.88;4.85;;;;;;;;;;5006920;28;20450;-90
2022/02/17 05:27:12;;;;;;;13.33;4.80;;;;;;;;;;5016860;28;20189;-89
2022/02/17 05:29:38;;;;;;;24.63;6.73;;;;;;;;;;5054628;28;20460;-87
2022/02/17 05:32:04;;;;;;;29.27;6.45;;;;;;;;;;5024280;28;20425;-87
2022/02/17 05:34:30;;;;;;;25.48;6.03;;;;;;;;;;5031320;28;20190;-87
2022/02/17 05:36:56;;;;;;;27.57;5.40;;;;;;;;;;5026746;28;20590;-88
2022/02/17 05:39:22;;;;;;;16.35;4.85;;;;;;;;;;5022854;28;20473;-86
2022/02/17 05:41:48;;;;;;;16.17;4.60;;;;;;;;;;5005744;28;20183;-86
2022/02/17 05:44:14;;;;;;;16.17;5.40;;;;;;;;;;5006457;28;20460;-87
2022/02/17 05:46:40;;;;;;;20.23;6.80;;;;;;;;;;5011039;28;20187;-86
2022/02/17 05:49:06;;;;;;;18.60;5.72;;;;;;;;;;5023443;28;20458;-87
2022/02/17 05:51:32;;;;;;;25.45;7.20;;;;;;;;;;5022601;28;20668;-87
2022/02/17 05:53:58;;;;;;;21.13;4.85;;;;;;;;;;5038221;28;20186;-87
2022/02/17 05:56:24;;;;;;;17.17;5.60;;;;;;;;;;5024579;28;20179;-87
2022/02/17 05:58:50;;;;;;;22.20;5.43;;;;;;;;;;5037207;28;20201;-87
2022/02/17 06:01:16;;;;;;;32.87;7.40;;;;;;;;;;5022078;28;20190;-88
2022/02/17 06:03:42;;;;;;;16.10;5.50;;;;;;;;;;5036882;28;20719;-88
2022/02/17 06:06:08;;;;;;;25.55;6.60;;;;;;;;;;5022842;28;20566;-86
2022/02/17 06:08:34;;;;;;;22.23;6.75;;;;;;;;;;5019435;28;20206;-86
2022/02/17 06:11:00;;;;;;;23.67;5.60;;;;;;;;;;5043456;28;20179;-87
2022/02/17 06:13:26;;;;;;;19.40;6.63;;;;;;;;;;5012062;28;20421;-85
2022/02/17 06:15:52;;;;;;;23.97;7.30;;;;;;;;;;5028816;28;20191;-86
2022/02/17 06:18:18;;;;;;;21.95;6.68;;;;;;;;;;5029217;28;20491;-88
2022/02/17 06:20:44;;;;;;;22.58;6.22;;;;;;;;;;5026300;28;20453;-86
2022/02/17 06:23:10;;;;;;;25.77;5.75;;;;;;;;;;5025897;28;20320;-89
2022/02/17 06:25:36;;;;;;;20.20;6.07;;;;;;;;;;5032445;28;20197;-86
2022/02/17 06:28:03;;;;;;;23.30;7.20;;;;;;;;;;5033008;28;20488;-85
2022/02/17 06:30:30;;;;;;;24.50;6.63;;;;;;;;;;5049088;28;20448;-88
2022/02/17 06:32:57;;;;;;;26.13;7.18;;;;;;;;;;5026815;28;20194;-87
2022/02/17 06:35:29;;;;;;;20.85;6.80;;;;;;;;;;5057888;28;20174;-85
2022/02/17 06:37:55;;;;;;;29.83;6.85;;;;;;;;;;5026730;28;20226;-84
2022/02/17 06:40:22;;;;;;;27.48;6.55;;;;;;;;;;5039159;28;20194;-85
2022/02/17 06:42:48;;;;;;;21.90;7.50;;;;;;;;;;5035551;28;20588;-88
2022/02/17 06:45:14;;;;;;;23.50;9.10;;;;;;;;;;5029353;28;20247;-84
2022/02/17 06:47:40;;;;;;;29.23;6.70;;;;;;;;;;5038370;28;20174;-82
2022/02/17 06:50:07;;;;;;;27.90;8.10;;;;;;;;;;5032291;28;20342;-83
2022/02/17 06:52:34;;;;;;;25.63;8.07;;;;;;;;;;5028696;28;20190;-84
2022/02/17 06:55:00;;;;;;;17.50;7.72;;;;;;;;;;5033520;28;20187;-88
2022/02/17 06:57:26;;;;;;;30.23;7.22;;;;;;;;;;5043842;28;20179;-89
2022/02/17 06:59:53;;;;;;;22.80;6.78;;;;;;;;;;5022097;28;20483;-83
2022/02/17 07:02:26;;;;;;;24.23;7.95;;;;;;;;;;5047940;28;20267;-82
2022/02/17 07:04:52;;;;;;;22.67;7.32;;;;;;;;;;5021540;28;20226;-83
2022/02/17 07:07:18;;;;;;;26.95;7.07;;;;;;;;;;5024557;28;20182;-83
2022/02/17 07:09:45;;;;;;;24.48;7.18;;;;;;;;;;5038854;28;20285;-82
2022/02/17 07:12:12;;;;;;;26.15;7.45;;;;;;;;;;5018891;28;20240;-83
2022/02/17 07:14:38;;;;;;;22.27;7.10;;;;;;;;;;5045371;28;20182;-83
2022/02/17 07:17:04;;;;;;;18.48;6.82;;;;;;;;;;5028552;28;20541;-84
2022/02/17 07:19:30;;;;;;;32.92;8.60;;;;;;;;;;5030440;28;20239;-84
2022/02/17 07:21:56;;;;;;;30.63;7.78;;;;;;;;;;5029291;28;20198;-86
2022/02/17 07:24:22;;;;;;;23.83;6.65;;;;;;;;;;5042879;28;20228;-85
2022/02/17 07:26:49;;;;;;;26.05;7.72;;;;;;;;;;5022859;28;20203;-83
2022/02/17 07:29:15;;;;;;;38.13;9.82;;;;;;;;;;5042115;28;20206;-86
2022/02/17 07:31:41;;;;;;;29.25;7.45;;;;;;;;;;5039374;28;20182;-85
2022/02/17 07:34:08;;;;;;;28.08;8.48;;;;;;;;;;5030076;28;20206;-85
2022/02/17 07:36:37;;;;;;;27.85;7.75;;;;;;;;;;5046107;28;20190;-84
2022/02/17 07:39:04;;;;;;;31.10;6.60;;;;;;;;;;5030086;28;20214;-86
2022/02/17 07:41:31;;;;;;;29.45;7.25;;;;;;;;;;5043568;28;20205;-85
2022/02/17 07:43:57;;;;;;;36.03;8.90;;;;;;;;;;5020133;28;20250;-85
2022/02/17 07:46:23;;;;;;;27.05;7.40;;;;;;;;;;5028191;28;20190;-82
2022/02/17 07:48:50;;;;;;;35.65;8.43;;;;;;;;;;5022756;28;20293;-83
2022/02/17 07:51:17;;;;;;;29.58;8.15;;;;;;;;;;5045286;28;20178;-84
2022/02/17 07:53:43;;;;;;;31.77;7.30;;;;;;;;;;5026661;28;20261;-83
2022/02/17 07:56:09;;;;;;;37.53;7.93;;;;;;;;;;5050681;28;20547;-82
2022/02/17 07:58:37;;;;;;;20.67;6.60;;;;;;;;;;5035229;28;20202;-83
2022/02/17 08:01:03;;;;;;;33.08;7.97;;;;;;;;;;5017493;28;20252;-82
2022/02/17 08:03:33;;;;;;;31.23;8.20;;;;;;;;;;5017194;28;20246;-88
2022/02/17 08:05:59;;;;;;;27.50;6.63;;;;;;;;;;5023092;28;20197;-83
2022/02/17 08:08:25;;;;;;;23.52;7.45;;;;;;;;;;5051522;28;20273;-85
2022/02/17 08:10:51;;;;;;;34.57;7.40;;;;;;;;;;5013052;28;20716;-86
2022/02/17 08:13:19;;;;;;;24.27;7.50;;;;;;;;;;5044838;28;20954;-87
2022/02/17 08:15:45;;;;;;;27.40;8.20;;;;;;;;;;5027123;28;20189;-86
2022/02/17 08:18:11;;;;;;;31.25;8.18;;;;;;;;;;5024390;28;20182;-85
2022/02/17 08:20:37;;;;;;;27.50;7.27;;;;;;;;;;5023896;28;20186;-87
2022/02/17 08:23:03;;;;;;;27.23;8.45;;;;;;;;;;5013560;28;20888;-85
2022/02/17 08:25:29;;;;;;;39.63;9.50;;;;;;;;;;5008216;28;20191;-88
2022/02/17 08:27:55;;;;;;;29.27;8.40;;;;;;;;;;5055042;28;20209;-86
2022/02/17 08:30:21;;;;;;;30.10;7.72;;;;;;;;;;5023698;28;20182;-87
2022/02/17 08:32:48;;;;;;;29.30;9.60;;;;;;;;;;5021997;28;20246;-87
2022/02/17 08:35:14;;;;;;;25.48;8.00;;;;;;;;;;5041743;28;20415;-91
2022/02/17 08:37:41;;;;;;;36.63;8.48;;;;;;;;;;5038438;28;20186;-82
2022/02/17 08:40:08;;;;;;;31.13;7.82;;;;;;;;;;5019619;28;20232;-81
2022/02/17 08:42:34;;;;;;;32.35;7.57;;;;;;;;;;5035764;28;20228;-89
2022/02/17 08:45:00;;;;;;;22.55;7.18;;;;;;;;;;5029547;28;20218;-86
2022/02/17 08:47:26;;;;;;;40.25;9.63;;;;;;;;;;5004928;28;20207;-86
2022/02/17 08:49:52;;;;;;;27.63;8.07;;;;;;;;;;5033479;28;20217;-88
2022/02/17 08:52:19;;;;;;;25.83;7.10;;;;;;;;;;5027384;28;20543;-84
2022/02/17 08:54:46;;;;;;;35.30;7.30;;;;;;;;;;5027997;28;20452;-82
2022/02/17 08:57:12;;;;;;;33.05;7.80;;;;;;;;;;5036792;28;20181;-86
2022/02/17 08:59:38;;;;;;;31.20;8.15;;;;;;;;;;5042193;28;20205;-85
2022/02/17 09:02:04;;;;;;;35.40;10.37;;;;;;;;;;5044505;28;20627;-84
2022/02/17 09:04:32;;;;;;;32.10;7.95;;;;;;;;;;5032893;28;20445;-83
2022/02/17 09:06:58;;;;;;;33.13;7.30;;;;;;;;;;5021660;28;20189;-88
2022/02/17 09:09:24;;;;;;;22.20;5.90;;;;;;;;;;5022808;28;20209;-87
2022/02/17 09:11:50;;;;;;;23.77;8.13;;;;;;;;;;5025881;28;20174;-88
2022/02/17 09:14:16;;;;;;;25.02;6.88;;;;;;;;;;5034674;28;20460;-87
2022/02/17 09:16:42;;;;;;;38.88;7.32;;;;;;;;;;5013477;28;20201;-87
2022/02/17 09:19:08;;;;;;;32.47;7.00;;;;;;;;;;5033290;28;20185;-89
2022/02/17 09:21:35;;;;;;;29.70;8.53;;;;;;;;;;5038914;28;20190;-87
2022/02/17 09:24:01;;;;;;;32.53;8.65;;;;;;;;;;5046797;28;20441;-85
2022/02/17 09:26:29;;;;;;;35.40;10.48;;;;;;;;;;5024732;28;20252;-87
2022/02/17 09:28:55;;;;;;;25.77;8.70;;;;;;;;;;5042888;28;20214;-89
2022/02/17 09:31:23;;;;;;;30.75;7.40;;;;;;;;;;5030418;28;20174;-86
2022/02/17 09:33:54;;;;;;;28.85;8.18;;;;;;;;;;5053638;28;20205;-87
2022/02/17 09:36:20;;;;;;;28.92;8.35;;;;;;;;;;5009377;28;20182;-89
2022/02/17 09:38:47;;;;;;;32.83;8.70;;;;;;;;;;5022430;28;20223;-86
2022/02/17 09:41:16;;;;;;;33.35;8.27;;;;;;;;;;5042853;28;20246;-85
2022/02/17 09:43:42;;;;;;;33.53;7.32;;;;;;;;;;5011442;28;20229;-88
2022/02/17 09:46:08;;;;;;;23.30;6.35;;;;;;;;;;5026531;28;20183;-84
2022/02/17 09:48:34;;;;;;;39.25;8.43;;;;;;;;;;5011778;28;20552;-86
2022/02/17 09:51:00;;;;;;;30.80;8.40;;;;;;;;;;5022097;28;21001;-84
2022/02/17 09:53:26;;;;;;;24.70;7.45;;;;;;;;;;5006175;28;20175;-85
2022/02/17 09:55:52;;;;;;;29.38;7.72;;;;;;;;;;5029023;28;20790;-86
2022/02/17 09:58:19;;;;;;;33.78;7.22;;;;;;;;;;5033182;28;20244;-85
2022/02/17 10:00:45;;;;;;;27.58;7.78;;;;;;;;;;5033492;28;20179;-85
2022/02/17 10:03:26;;;;;;;31.52;7.68;;;;;;;;;;5029787;28;20190;-85
2022/02/17 10:06:06;;;;;;;28.67;7.90;;;;;;;;;;5028770;28;20172;-89
2022/02/17 10:08:32;;;;;;;33.75;8.18;;;;;;;;;;5042351;28;20273;-87
2022/02/17 10:10:58;;;;;;;23.65;6.40;;;;;;;;;;5017672;28;20198;-89
2022/02/17 10:13:24;;;;;;;32.45;8.32;;;;;;;;;;5033458;28;20187;-90
2022/02/17 10:15:57;;;;;;;37.63;8.82;;;;;;;;;;5018182;28;20197;-88
2022/02/17 10:18:27;;;;;;;27.45;7.32;;;;;;;;;;5031282;28;20592;-85
2022/02/17 10:21:05;;;;;;;26.02;6.28;;;;;;;;;;5028629;28;20203;-84
2022/02/17 10:23:35;;;;;;;22.90;7.65;;;;;;;;;;5026385;28;20174;-84
2022/02/17 10:26:03;;;;;;;34.60;7.07;;;;;;;;;;5033238;28;20183;-89
2022/02/17 10:28:32;;;;;;;30.88;6.15;;;;;;;;;;5032977;28;20222;-87
2022/02/17 10:30:58;;;;;;;28.48;7.43;;;;;;;;;;5033229;28;20191;-86
2022/02/17 10:33:24;;;;;;;26.70;6.95;;;;;;;;;;5031294;28;20182;-86
2022/02/17 10:35:58;;;;;;;38.30;10.48;;;;;;;;;;5028302;28;20183;-86
2022/02/17 10:38:24;;;;;;;30.20;8.15;;;;;;;;;;5015826;28;20250;-87
2022/02/17 10:40:52;;;;;;;24.35;6.57;;;;;;;;;;5032193;28;20186;-89
2022/02/17 10:43:19;;;;;;;20.13;6.35;;;;;;;;;;5018394;28;20184;-92
2022/02/17 10:45:46;;;;;;;25.92;9.18;;;;;;;;;;5032683;28;20213;-87
2022/02/17 10:48:16;;;;;;;33.53;10.00;;;;;;;;;;5029408;28;20206;-85
2022/02/17 10:50:43;;;;;;;19.98;6.38;;;;;;;;;;5013441;28;20186;-84
2022/02/17 10:53:16;;;;;;;21.48;5.85;;;;;;;;;;5025076;28;20261;-86
2022/02/17 10:55:51;;;;;;;25.67;6.88;;;;;;;;;;5027258;28;20224;-88
2022/02/17 10:58:18;;;;;;;18.70;6.55;;;;;;;;;;5038122;28;20198;-86
2022/02/17 11:00:44;;;;;;;18.08;5.15;;;;;;;;;;5033204;28;20190;-86
2022/02/17 11:03:10;;;;;;;24.73;5.55;;;;;;;;;;5029200;28;20186;-87
2022/02/17 11:05:38;;;;;;;20.75;7.35;;;;;;;;;;5026141;28;20211;-86
2022/02/17 11:08:06;;;;;;;21.98;6.72;;;;;;;;;;5025270;28;20200;-91
2022/02/17 11:10:32;;;;;;;25.40;6.13;;;;;;;;;;5014486;28;20212;-87
2022/02/17 11:12:58;;;;;;;21.60;6.45;;;;;;;;;;5025072;28;20184;-87
2022/02/17 11:15:24;;;;;;;19.65;5.78;;;;;;;;;;5012863;28;20186;-88
2022/02/17 11:17:50;;;;;;;34.17;6.50;;;;;;;;;;5025205;28;20191;-89
2022/02/17 11:20:20;;;;;;;26.98;7.10;;;;;;;;;;5040605;28;20172;-86
2022/02/17 11:22:47;;;;;;;19.98;5.65;;;;;;;;;;5029756;28;20191;-89
2022/02/17 11:25:13;;;;;;;24.85;6.35;;;;;;;;;;5014404;28;20181;-85
2022/02/17 11:27:58;;;;;;;20.77;7.30;;;;;;;;;;5025378;28;20191;-86
2022/02/17 11:30:28;;;;;;;30.15;5.32;;;;;;;;;;5035278;28;20312;-86
2022/02/17 11:33:13;;;;;;;23.60;6.18;;;;;;;;;;5021345;28;20302;-88
2022/02/17 11:35:39;;;;;;;19.48;5.38;;;;;;;;;;5036928;28;20170;-90
2022/02/17 11:38:25;;;;;;;20.00;5.73;;;;;;;;;;5028986;28;20230;-86
2022/02/17 11:40:58;;;;;;;18.80;6.00;;;;;;;;;;5042255;28;20529;-87
2022/02/17 11:43:31;;;;;;;24.55;5.43;;;;;;;;;;5030055;28;20188;-90
2022/02/17 11:45:57;;;;;;;16.55;5.70;;;;;;;;;;5028365;28;20287;-89
2022/02/17 11:48:34;;;;;;;17.52;5.60;;;;;;;;;;5031928;28;20207;-86
2022/02/17 11:51:12;;;;;;;13.57;4.60;;;;;;;;;;5010797;28;20237;-83
2022/02/17 11:53:40;;;;;;;12.32;4.07;;;;;;;;;;5036829;28;20175;-86
2022/02/17 11:56:07;;;;;;;18.23;5.20;;;;;;;;;;5033351;28;20208;-87
2022/02/17 11:58:43;;;;;;;17.80;5.68;;;;;;;;;;5017922;28;20717;-87
2022/02/17 12:01:25;;;;;;;15.15;4.78;;;;;;;;;;5034180;28;20191;-90
2022/02/17 12:03:54;;;;;;;23.73;5.60;;;;;;;;;;5022993;28;20194;-90
2022/02/17 12:06:41;;;;;;;13.18;5.15;;;;;;;;;;5025102;28;20188;-86
2022/02/17 12:09:07;;;;;;;12.32;4.15;;;;;;;;;;5026955;28;20214;-90
2022/02/17 12:11:37;;;;;;;16.67;5.40;;;;;;;;;;5024468;28;20211;-87
2022/02/17 12:14:08;;;;;;;16.70;4.38;;;;;;;;;;5030887;28;20186;-84
2022/02/17 12:16:34;;;;;;;15.13;4.53;;;;;;;;;;5025842;28;20218;-88
2022/02/17 12:19:13;;;;;;;19.30;4.25;;;;;;;;;;5016567;28;20184;-89
2022/02/17 12:21:40;;;;;;;19.48;4.88;;;;;;;;;;5032594;28;20201;-84
2022/02/17 12:24:07;;;;;;;13.02;4.32;;;;;;;;;;5022058;28;20203;-84
2022/02/17 12:26:39;;;;;;;12.85;3.90;;;;;;;;;;5021577;28;20192;-90
2022/02/17 12:29:26;;;;;;;16.00;4.93;;;;;;;;;;5036212;28;20222;-89
2022/02/17 12:31:52;;;;;;;22.20;5.18;;;;;;;;;;5034608;28;20228;-82
2022/02/17 12:34:18;;;;;;;15.63;5.20;;;;;;;;;;5044244;28;20608;-84
2022/02/17 12:36:44;;;;;;;15.73;4.70;;;;;;;;;;5032745;28;20661;-84
2022/02/17 12:39:10;;;;;;;15.93;4.32;;;;;;;;;;5023776;28;20225;-86
2022/02/17 12:41:36;;;;;;;17.50;4.45;;;;;;;;;;5008631;28;20197;-83
2022/02/17 12:44:02;;;;;;;14.40;4.43;;;;;;;;;;5012937;28;20172;-86
2022/02/17 12:46:28;;;;;;;23.45;4.38;;;;;;;;;;5027643;28;20194;-89
2022/02/17 12:48:54;;;;;;;18.50;4.63;;;;;;;;;;5012315;28;20210;-88
2022/02/17 12:51:25;;;;;;;23.60;5.97;;;;;;;;;;5034679;28;20437;-85
2022/02/17 12:53:56;;;;;;;15.43;4.35;;;;;;;;;;5024027;28;20185;-84
2022/02/17 12:56:41;;;;;;;16.88;6.13;;;;;;;;;;5037714;28;20186;-85
2022/02/17 12:59:25;;;;;;;14.25;5.45;;;;;;;;;;5006958;28;20178;-87
2022/02/17 13:01:55;;;;;;;21.85;7.18;;;;;;;;;;5023769;28;20717;-87
2022/02/17 13:04:21;;;;;;;13.48;5.55;;;;;;;;;;5023461;28;20192;-86
2022/02/17 13:06:47;;;;;;;20.08;5.57;;;;;;;;;;5026700;28;20197;-82
2022/02/17 13:09:15;;;;;;;20.58;7.00;;;;;;;;;;5031922;28;20229;-85
2022/02/17 13:11:47;;;;;;;26.50;9.27;;;;;;;;;;5023179;28;20210;-83
2022/02/17 13:14:13;;;;;;;13.93;5.57;;;;;;;;;;5026187;28;20183;-84
2022/02/17 13:16:51;;;;;;;15.25;4.93;;;;;;;;;;5011827;28;20225;-85
2022/02/17 13:19:39;;;;;;;17.48;5.60;;;;;;;;;;5013376;28;20182;-82
2022/02/17 13:22:12;;;;;;;14.77;5.63;;;;;;;;;;5027275;28;20200;-88
2022/02/17 13:24:41;;;;;;;14.27;5.53;;;;;;;;;;5023205;28;20231;-84
2022/02/17 13:27:07;;;;;;;13.23;6.20;;;;;;;;;;5007806;28;20216;-86
2022/02/17 13:29:33;;;;;;;14.68;3.90;;;;;;;;;;5022481;28;20194;-83
2022/02/17 13:31:59;;;;;;;16.83;5.00;;;;;;;;;;5024800;28;20194;-84
2022/02/17 13:34:29;;;;;;;18.47;4.67;;;;;;;;;;5026181;28;20181;-87
2022/02/17 13:37:05;;;;;;;14.63;5.45;;;;;;;;;;5036032;28;20448;-83
2022/02/17 13:39:31;;;;;;;10.32;3.33;;;;;;;;;;5019663;28;20233;-82
2022/02/17 13:42:03;;;;;;;17.50;4.07;;;;;;;;;;5054363;28;20308;-88
2022/02/17 13:44:34;;;;;;;11.57;3.80;;;;;;;;;;5051353;28;20438;-86
2022/02/17 13:47:00;;;;;;;12.13;4.97;;;;;;;;;;5048538;28;20682;-87
2022/02/17 13:49:27;;;;;;;12.30;4.03;;;;;;;;;;5018349;28;20215;-86
2022/02/17 13:51:53;;;;;;;12.18;3.63;;;;;;;;;;5013481;28;20199;-86
2022/02/17 13:54:19;;;;;;;14.00;4.30;;;;;;;;;;5012490;28;20890;-89
2022/02/17 13:56:45;;;;;;;13.60;5.63;;;;;;;;;;5022461;28;20233;-85
2022/02/17 13:59:12;;;;;;;19.67;4.30;;;;;;;;;;5055135;28;20183;-88
2022/02/17 14:01:39;;;;;;;10.05;3.78;;;;;;;;;;5035393;28;20190;-85
2022/02/17 14:04:05;;;;;;;15.88;3.83;;;;;;;;;;5019397;28;20207;-85
2022/02/17 14:06:32;;;;;;;15.55;4.28;;;;;;;;;;5013438;28;20188;-86
2022/02/17 14:08:58;;;;;;;13.57;3.83;;;;;;;;;;5028664;28;20214;-84
2022/02/17 14:11:24;;;;;;;11.77;4.20;;;;;;;;;;5048037;28;20191;-83
2022/02/17 14:13:50;;;;;;;12.48;4.80;;;;;;;;;;5043508;28;20270;-84
2022/02/17 14:16:16;;;;;;;12.47;4.40;;;;;;;;;;5010076;28;20207;-90
2022/02/17 14:18:43;;;;;;;19.42;4.78;;;;;;;;;;5045829;28;20409;-88
2022/02/17 14:21:09;;;;;;;13.00;4.20;;;;;;;;;;5047161;28;20186;-88
2022/02/17 14:23:35;;;;;;;11.23;4.13;;;;;;;;;;5029002;28;20447;-83
2022/02/17 14:26:01;;;;;;;8.20;3.03;;;;;;;;;;5033238;28;20443;-84
2022/02/17 14:28:27;;;;;;;8.00;3.83;;;;;;;;;;5054163;28;20473;-82
2022/02/17 14:30:53;;;;;;;8.90;3.57;;;;;;;;;;5021558;28;20436;-81
2022/02/17 14:33:20;;;;;;;14.57;4.70;;;;;;;;;;5018709;28;20536;-84
2022/02/17 14:35:48;;;;;;;14.90;4.30;;;;;;;;;;5035358;28;20556;-81